首页
METAR-TAF:

METAR-TAF

机场 :

Moody Air Force Base

Valdosta, 喬治亞, 美国

纬度: 30-58N, 经度: 083-12W, 海拔: 71米

当前天气观测

该预报发布于28分钟前的07:56 UTC
静风
温度 18°C
湿度 88%
气压 1018 hPa
能見度: 16.1公里
多云层高于15000英尺

METAR: KVAD 230756Z AUTO 00000KT 10SM BKN150 18/16 A3005 RMK AO2 SLPNO T01810159 $

时间: 04:24 (08:24 UTC)

预报

该预报发布于24分钟前的08:00 UTC
预报有效从23日的 08点(UTC)到 24日的 14点(UTC)
风速6节,风向
能见度10公里或以上
多云层高于15000英尺
多云层高于25000英尺
成为
从 23日的 11点(UTC)到 23日的 12点(UTC)
风速6节,风向
能见度10公里或以上
多云层高于10000英尺
多云层高于25000英尺
成为
从 24日的 01点(UTC)到 24日的 02点(UTC)
风速6节,风向
能见度10公里或以上
多云层高于2000英尺
多云层高于12000英尺

TAF: KVAD 230800Z 2308/2414 08006KT 9999 BKN150 BKN250 QNH3005INS BECMG 2311/2312 10006KT 9999 BKN100 BKN250 QNH2998INS BECMG 2401/2402 09006KT 9999 BKN020 BKN120 QNH2997INS TX27/2318Z TN17/2310Z

超过4000个机场的气象观测和天气预报(METAR&TAF报告)。

可查询的气象台以黄色和红色小点在地图上表示。

将鼠标移到小点上方,可查看气象台名称。

然后点击查看天气观测和预报。

如需切换地图:点击带黑十字的绿色按钮放大地图;点击带横线的绿色按钮缩小地图;或者点击绿色箭头查看邻近地区的地图。


METAR-TAF: